createdAt,value
2023-01-06T00:04:49.425Z,41.25
2023-01-06T00:09:54.123Z,27.75
2023-01-06T00:15:01.488Z,9.55
2023-01-06T00:20:06.366Z,10.60
2023-01-06T00:25:13.185Z,9.93
2023-01-06T00:30:20.582Z,9.23
2023-01-06T00:35:25.295Z,8.45
2023-01-06T00:40:29.942Z,14.38
2023-01-06T00:45:37.390Z,10.82
2023-01-06T00:50:42.088Z,7.75
2023-01-06T00:55:46.778Z,7.40
2023-01-06T01:00:54.168Z,12.35
2023-01-06T01:06:01.913Z,11.02
2023-01-06T01:11:06.826Z,10.07
2023-01-06T01:16:14.226Z,10.95
2023-01-06T01:21:18.941Z,8.30
2023-01-06T01:26:23.660Z,11.70
2023-01-06T01:31:31.217Z,1.60
2023-01-06T01:36:36.177Z,9.68
2023-01-06T01:41:40.888Z,9.52
2023-01-06T01:46:48.222Z,14.18
2023-01-06T01:51:55.218Z,10.88
2023-01-06T01:57:01.830Z,8.77
2023-01-06T02:02:09.348Z,8.18
2023-01-06T02:07:14.331Z,14.23
2023-01-06T02:12:19.052Z,8.45
2023-01-06T02:17:43.266Z,8.15
2023-01-06T02:23:02.094Z,5.97
2023-01-06T02:28:19.427Z,11.13
2023-01-06T02:33:30.720Z,8.98
2023-01-06T02:38:41.277Z,12.68
2023-01-06T02:43:49.383Z,7.05
2023-01-06T02:49:02.112Z,3.47
2023-01-06T02:54:11.632Z,4.40
2023-01-06T02:59:19.324Z,4.57
2023-01-06T03:04:29.710Z,4.57
2023-01-06T03:14:41.876Z,6.00
2023-01-06T03:19:49.448Z,6.63
2023-01-06T03:24:54.486Z,16.63
2023-01-06T03:29:59.352Z,19.70
2023-01-06T03:35:15.081Z,9.93
2023-01-06T03:40:23.192Z,13.15
2023-01-06T03:45:35.624Z,5.22
2023-01-06T03:50:45.479Z,3.38
2023-01-06T03:55:52.749Z,3.05
2023-01-06T04:00:57.676Z,3.35
2023-01-06T04:06:05.048Z,4.18
2023-01-06T04:11:29.821Z,3.17
2023-01-06T04:16:34.697Z,2.47
2023-01-06T04:21:42.070Z,2.05
2023-01-06T04:26:46.801Z,1.92
2023-01-06T04:31:52.443Z,2.10
2023-01-06T04:36:59.838Z,2.20
2023-01-06T04:42:04.569Z,2.00
2023-01-06T04:47:09.300Z,1.67
2023-01-06T04:52:16.669Z,1.80
2023-01-06T04:57:21.353Z,2.30
2023-01-06T05:02:26.246Z,2.20
2023-01-06T05:07:33.667Z,1.88
2023-01-06T05:12:38.706Z,1.77
2023-01-06T05:17:43.437Z,2.20
2023-01-06T05:22:50.863Z,2.90
2023-01-06T05:27:55.592Z,3.72
2023-01-06T05:33:00.299Z,3.83
2023-01-06T05:38:07.746Z,3.42
2023-01-06T05:43:12.512Z,3.42
2023-01-06T05:48:17.276Z,4.30
2023-01-06T05:53:24.634Z,3.35
2023-01-06T05:58:29.479Z,3.75
2023-01-06T06:03:34.784Z,3.80
2023-01-06T06:08:42.103Z,3.50
2023-01-06T06:13:48.745Z,3.90
2023-01-06T06:18:54.181Z,5.18
2023-01-06T06:24:02.237Z,4.68
2023-01-06T06:29:10.282Z,4.57
2023-01-06T06:34:16.034Z,4.63
2023-01-06T06:39:23.497Z,3.83
2023-01-06T06:44:28.170Z,4.80
2023-01-06T06:49:32.971Z,4.30
2023-01-06T06:54:40.348Z,4.57
2023-01-06T06:59:45.124Z,5.00
2023-01-06T07:04:50.049Z,4.78
2023-01-06T07:09:57.534Z,3.60
2023-01-06T07:15:02.319Z,5.32
2023-01-06T07:20:07.533Z,9.45
2023-01-06T07:25:15.127Z,9.30
2023-01-06T07:30:19.986Z,8.57
2023-01-06T07:35:24.811Z,8.80
2023-01-06T07:40:32.303Z,9.02
2023-01-06T07:45:37.287Z,7.22
2023-01-06T07:50:42.039Z,5.78
2023-01-06T07:55:58.325Z,6.38
2023-01-06T08:01:07.855Z,7.03
2023-01-06T08:06:13.379Z,6.53
2023-01-06T08:11:20.732Z,6.25
2023-01-06T08:16:25.645Z,6.03
2023-01-06T08:21:30.475Z,6.30
2023-01-06T08:26:37.855Z,8.82
2023-01-06T08:31:42.625Z,6.65
2023-01-06T08:36:47.346Z,6.70
2023-01-06T08:41:55.040Z,6.80
2023-01-06T08:47:00.118Z,8.32
2023-01-06T08:52:07.143Z,5.60
2023-01-06T08:57:16.284Z,4.93
2023-01-06T09:02:21.115Z,7.07
2023-01-06T09:07:25.954Z,8.10
2023-01-06T09:12:33.354Z,7.00
2023-01-06T09:17:38.157Z,14.50
2023-01-06T09:22:42.933Z,8.45
2023-01-06T09:27:50.271Z,4.07
2023-01-06T09:32:55.005Z,4.82
2023-01-06T09:38:02.239Z,7.85
2023-01-06T09:43:20.122Z,7.85
2023-01-06T09:48:28.159Z,4.03
2023-01-06T09:53:35.068Z,6.22
2023-01-06T09:58:45.534Z,5.00
2023-01-06T10:03:50.748Z,5.22
2023-01-06T10:08:59.062Z,3.72
2023-01-06T10:14:14.233Z,4.93
2023-01-06T10:19:22.345Z,9.32
2023-01-06T10:24:31.631Z,2.72
2023-01-06T10:29:40.662Z,9.10
2023-01-06T10:34:47.730Z,2.17
2023-01-06T10:39:55.630Z,2.22
2023-01-06T10:45:02.959Z,7.68
2023-01-06T10:50:08.438Z,2.85
2023-01-06T10:55:19.266Z,4.35
2023-01-06T11:00:30.737Z,2.50
2023-01-06T11:05:36.977Z,3.63
2023-01-06T11:10:45.122Z,5.47
2023-01-06T11:15:52.751Z,3.45
2023-01-06T11:21:05.526Z,3.90
2023-01-06T11:26:16.689Z,1.73
2023-01-06T11:31:26.143Z,1.90
2023-01-06T11:36:33.277Z,2.63
2023-01-06T11:41:40.000Z,2.53
2023-01-06T11:46:51.690Z,2.83
2023-01-06T11:52:03.200Z,2.22
2023-01-06T11:57:25.456Z,4.00
2023-01-06T12:02:34.573Z,3.55
2023-01-06T12:07:41.754Z,13.48
2023-01-06T12:12:46.423Z,5.22
2023-01-06T12:17:54.972Z,18.42
2023-01-06T12:23:01.538Z,5.95
2023-01-06T12:28:08.174Z,3.63
2023-01-06T12:33:17.991Z,1.95
2023-01-06T12:38:32.271Z,2.92
2023-01-06T12:43:37.456Z,2.90
2023-01-06T12:48:47.535Z,3.30
2023-01-06T12:59:02.050Z,2.08
2023-01-06T13:09:24.240Z,2.00
2023-01-06T13:14:31.699Z,3.20
2023-01-06T13:19:40.848Z,2.63
2023-01-06T13:24:53.708Z,2.72
2023-01-06T13:30:11.847Z,2.20
2023-01-06T13:35:21.294Z,4.43
2023-01-06T13:40:29.977Z,4.07
2023-01-06T13:45:36.158Z,6.15
2023-01-06T13:50:41.207Z,9.30
2023-01-06T13:55:49.419Z,7.85
2023-01-06T14:01:08.094Z,5.10
2023-01-06T14:06:14.113Z,12.80
2023-01-06T14:11:34.577Z,19.90
2023-01-06T14:16:44.511Z,12.95
2023-01-06T14:21:49.787Z,21.05
2023-01-06T14:27:00.062Z,36.05
2023-01-06T14:32:04.839Z,47.53
2023-01-06T14:37:14.731Z,29.98
2023-01-06T14:42:23.856Z,13.25
2023-01-06T14:47:32.280Z,18.40
2023-01-06T14:52:38.438Z,17.42
2023-01-06T14:57:45.754Z,27.38
2023-01-06T15:02:51.918Z,18.92
2023-01-06T15:08:03.871Z,25.15
2023-01-06T15:13:23.031Z,38.88
2023-01-06T15:18:28.159Z,51.75
2023-01-06T15:23:32.915Z,38.53
2023-01-06T15:28:40.162Z,36.45
2023-01-06T15:33:44.836Z,29.45
2023-01-06T15:38:50.010Z,25.55
2023-01-06T15:43:57.691Z,25.65
2023-01-06T15:49:02.485Z,29.67
2023-01-06T15:54:07.312Z,36.30
2023-01-06T15:59:17.024Z,68.80
2023-01-06T16:04:22.805Z,95.75
2023-01-06T16:09:35.851Z,82.13
2023-01-06T16:14:45.899Z,38.03
2023-01-06T16:19:51.537Z,39.65
2023-01-06T16:24:56.659Z,49.47
2023-01-06T16:30:22.168Z,43.92
2023-01-06T16:35:27.967Z,60.45
2023-01-06T16:40:32.972Z,63.70
2023-01-06T16:45:42.000Z,66.80
2023-01-06T16:50:50.734Z,66.47
2023-01-06T16:55:56.355Z,54.42
2023-01-06T17:01:08.577Z,63.67
2023-01-06T17:06:14.630Z,73.18
2023-01-06T17:11:20.320Z,90.03
2023-01-06T17:16:31.297Z,96.50
2023-01-06T17:21:36.722Z,70.07
2023-01-06T17:26:41.677Z,62.72
2023-01-06T17:31:50.520Z,61.33
2023-01-06T17:36:58.448Z,64.65
2023-01-06T17:42:05.516Z,85.65
2023-01-06T17:47:29.302Z,64.88
2023-01-06T17:52:36.107Z,58.00
2023-01-06T17:57:47.478Z,66.70
2023-01-06T18:02:57.960Z,81.93
2023-01-06T18:08:09.882Z,77.72
2023-01-06T18:13:16.992Z,63.35
2023-01-06T18:18:25.959Z,60.90
2023-01-06T18:23:32.019Z,55.08
2023-01-06T18:28:38.736Z,56.83
2023-01-06T18:33:46.074Z,65.57
2023-01-06T18:38:50.795Z,56.88
2023-01-06T18:44:01.216Z,49.63
2023-01-06T18:49:21.021Z,86.45
2023-01-06T18:54:28.420Z,65.73
2023-01-06T18:59:33.818Z,61.88
2023-01-06T19:04:39.130Z,62.20
2023-01-06T19:09:47.205Z,59.42
2023-01-06T19:14:54.083Z,63.00
2023-01-06T19:20:15.297Z,82.75
2023-01-06T19:25:27.563Z,74.32
2023-01-06T19:30:49.803Z,68.68
2023-01-06T19:35:55.312Z,84.03
2023-01-06T19:41:23.299Z,100.38
2023-01-06T19:46:40.207Z,87.75
2023-01-06T19:51:45.151Z,94.93
2023-01-06T19:56:50.711Z,95.63
2023-01-06T20:02:00.308Z,83.60
2023-01-06T20:07:15.951Z,79.77
2023-01-06T20:12:25.576Z,84.40
2023-01-06T20:22:51.630Z,105.60
2023-01-06T20:28:02.357Z,96.70
2023-01-06T20:33:10.641Z,86.15
2023-01-06T20:38:16.932Z,85.07
2023-01-06T20:43:22.096Z,68.40
2023-01-06T20:48:32.520Z,57.47
2023-01-06T20:53:37.570Z,41.85
2023-01-06T20:58:42.332Z,41.30
2023-01-06T21:03:49.774Z,36.95
2023-01-06T21:08:57.319Z,101.93
2023-01-06T21:14:02.681Z,40.60
2023-01-06T21:19:10.153Z,39.55
2023-01-06T21:24:15.135Z,35.75
2023-01-06T21:29:20.040Z,33.00
2023-01-06T21:34:32.539Z,28.55
2023-01-06T21:39:37.495Z,30.30
2023-01-06T21:44:42.172Z,32.40
2023-01-06T21:49:49.634Z,147.93
2023-01-06T21:54:54.603Z,110.63
2023-01-06T21:59:59.349Z,33.97
2023-01-06T22:05:07.213Z,38.40
2023-01-06T22:10:13.661Z,49.03
2023-01-06T22:15:18.768Z,48.13
2023-01-06T22:20:29.251Z,51.35
2023-01-06T22:25:37.233Z,42.78
2023-01-06T22:30:44.404Z,28.98
2023-01-06T22:35:53.863Z,28.65
2023-01-06T22:40:58.573Z,28.90
2023-01-06T22:46:03.482Z,29.13
2023-01-06T22:51:11.134Z,28.52
2023-01-06T22:56:18.355Z,34.72
2023-01-06T23:01:23.145Z,37.67
2023-01-06T23:06:30.505Z,41.22
2023-01-06T23:11:37.096Z,42.83
2023-01-06T23:16:45.670Z,45.85
2023-01-06T23:21:53.154Z,50.15
2023-01-06T23:26:57.953Z,46.17
2023-01-06T23:32:02.683Z,46.25
2023-01-06T23:37:10.068Z,45.03
2023-01-06T23:42:14.818Z,40.45
2023-01-06T23:47:19.847Z,40.70
2023-01-06T23:52:29.618Z,37.67
2023-01-06T23:57:34.625Z,39.17
